National Weather Service United States Department of Commerce

Jose Continues to Bring Tropical Storm Conditions to Southern New England

Strong winds, heavy rain and dangerous surf will continue for Cape Cod and nearby islands for the next couple of days. Meanwhile, winter weather will continue to impact the northern Rockies, with cold temperatures across the Great Basin and eastern California. Elevated fire weather conditions will persist in eastern Colorado. Read More >


235
FTPA31 PHFO 221121
TAFSTU
TAF
NSTU 221121Z 2212/2312 11013KT P6SM VCSH SCT015 BKN040 BKN100=


444
SAZS31 NSTU 221251
MTRPPG
METAR NSTU 221250Z 14011KT 10SM FEW020 SCT040 BKN100 26/26 A2991 RMK
SLP130 T02640258=

METAR Formatted Surface Weather Observation  Issued: 09/22/2017 01:09:07 AM SST

NSTU Observation History

 

Significant Weather Charts